createdAt,value
2017-10-15T00:00:39.914Z,19.40
2017-10-15T00:03:09.953Z,21.40
2017-10-15T00:05:39.010Z,20.30
2017-10-15T00:08:07.319Z,23.27
2017-10-15T00:10:35.642Z,22.90
2017-10-15T00:13:05.188Z,20.87
2017-10-15T00:15:33.527Z,23.20
2017-10-15T00:18:02.589Z,26.77
2017-10-15T00:20:30.919Z,21.70
2017-10-15T00:22:59.244Z,27.60
2017-10-15T00:25:28.304Z,25.13
2017-10-15T00:27:56.618Z,28.57
2017-10-15T00:30:25.003Z,25.33
2017-10-15T00:32:53.343Z,25.33
2017-10-15T00:35:21.636Z,22.23
2017-10-15T00:37:49.933Z,23.60
2017-10-15T00:40:18.256Z,23.87
2017-10-15T00:42:46.570Z,21.30
2017-10-15T00:45:15.628Z,20.73
2017-10-15T00:47:43.957Z,25.60
2017-10-15T00:50:13.746Z,23.93
2017-10-15T00:52:42.035Z,24.67
2017-10-15T00:55:10.371Z,21.93
2017-10-15T00:57:39.452Z,24.27
2017-10-15T01:00:07.775Z,24.07
2017-10-15T01:02:36.859Z,23.83
2017-10-15T01:05:05.182Z,26.30
2017-10-15T01:07:33.952Z,25.70
2017-10-15T01:10:03.738Z,25.17
2017-10-15T01:12:32.060Z,24.67
2017-10-15T01:15:00.391Z,23.83
2017-10-15T01:17:28.679Z,26.57
2017-10-15T01:19:56.973Z,22.93
2017-10-15T01:22:25.308Z,20.40
2017-10-15T01:24:53.602Z,22.07
2017-10-15T01:27:21.940Z,23.60
2017-10-15T01:29:50.232Z,21.43
2017-10-15T01:32:18.514Z,20.23
2017-10-15T01:34:46.851Z,19.77
2017-10-15T01:37:15.141Z,18.60
2017-10-15T01:39:43.430Z,19.60
2017-10-15T01:42:11.758Z,17.50
2017-10-15T01:44:40.854Z,15.80
2017-10-15T01:47:09.907Z,19.00
2017-10-15T01:49:38.234Z,17.10
2017-10-15T01:52:06.588Z,15.77
2017-10-15T01:54:34.876Z,18.57
2017-10-15T01:57:03.203Z,17.83
2017-10-15T01:59:31.543Z,18.80
2017-10-15T02:01:59.836Z,19.77
2017-10-15T02:04:28.127Z,19.17
2017-10-15T02:06:56.462Z,18.87
2017-10-15T02:09:24.796Z,17.50
2017-10-15T02:11:53.087Z,16.80
2017-10-15T02:14:21.384Z,16.50
2017-10-15T02:16:49.711Z,15.37
2017-10-15T02:19:18.030Z,15.80
2017-10-15T02:21:47.136Z,14.17
2017-10-15T02:24:16.193Z,12.17
2017-10-15T02:26:44.514Z,13.63
2017-10-15T02:29:12.860Z,14.20
2017-10-15T02:31:41.147Z,13.90
2017-10-15T02:34:09.445Z,14.70
2017-10-15T02:36:37.763Z,13.60
2017-10-15T02:39:06.155Z,14.63
2017-10-15T02:41:34.550Z,17.10
2017-10-15T02:44:02.850Z,17.13
2017-10-15T02:46:32.684Z,17.07
2017-10-15T02:49:01.020Z,18.47
2017-10-15T02:51:29.460Z,18.63
2017-10-15T02:53:59.294Z,17.87
2017-10-15T02:56:28.355Z,18.83
2017-10-15T02:58:57.679Z,22.17
2017-10-15T03:01:26.008Z,21.03
2017-10-15T03:03:55.067Z,18.03
2017-10-15T03:06:23.386Z,18.70
2017-10-15T03:08:51.678Z,16.80
2017-10-15T03:11:20.020Z,15.53
2017-10-15T03:13:48.329Z,17.53
2017-10-15T03:16:16.623Z,18.13
2017-10-15T03:18:44.946Z,15.73
2017-10-15T03:21:13.230Z,15.63
2017-10-15T03:23:42.323Z,16.90
2017-10-15T03:26:10.714Z,17.73
2017-10-15T03:28:39.043Z,16.10
2017-10-15T03:31:08.134Z,15.80
2017-10-15T03:33:37.347Z,16.50
2017-10-15T03:36:06.430Z,14.73
2017-10-15T03:38:34.767Z,14.13
2017-10-15T03:41:03.106Z,16.70
2017-10-15T03:43:31.404Z,16.20
2017-10-15T03:45:59.790Z,16.20
2017-10-15T03:48:28.106Z,16.47
2017-10-15T03:50:57.195Z,16.63
2017-10-15T03:53:25.478Z,17.40
2017-10-15T03:55:55.310Z,17.27
2017-10-15T03:58:23.634Z,16.03
2017-10-15T04:00:51.927Z,15.17
2017-10-15T04:03:20.259Z,15.83
2017-10-15T04:05:48.552Z,16.53
2017-10-15T04:08:16.853Z,15.63
2017-10-15T04:10:45.201Z,15.47
2017-10-15T04:13:13.498Z,15.20
2017-10-15T04:15:41.787Z,15.70
2017-10-15T04:18:10.106Z,16.07
2017-10-15T04:20:38.402Z,16.70
2017-10-15T04:23:06.735Z,14.53
2017-10-15T04:25:35.034Z,13.53
2017-10-15T04:28:03.355Z,14.30
2017-10-15T04:30:31.658Z,14.37
2017-10-15T04:33:00.051Z,16.20
2017-10-15T04:35:28.543Z,22.07
2017-10-15T04:37:58.343Z,19.20
2017-10-15T04:40:26.678Z,14.57
2017-10-15T04:42:55.767Z,16.77
2017-10-15T04:45:24.054Z,15.37
2017-10-15T04:47:52.391Z,15.37
2017-10-15T04:50:20.686Z,16.87
2017-10-15T04:52:48.994Z,15.70
2017-10-15T04:55:17.319Z,14.70
2017-10-15T04:57:47.115Z,16.03
2017-10-15T05:00:15.442Z,16.90
2017-10-15T05:02:44.549Z,16.13
2017-10-15T05:05:12.836Z,16.37
2017-10-15T05:07:41.901Z,15.30
2017-10-15T05:10:10.227Z,15.77
2017-10-15T05:12:38.524Z,15.23
2017-10-15T05:15:07.641Z,14.80
2017-10-15T05:17:36.695Z,14.67
2017-10-15T05:20:06.035Z,14.00
2017-10-15T05:22:34.330Z,13.73
2017-10-15T05:25:02.717Z,16.00
2017-10-15T05:27:31.045Z,16.23
2017-10-15T05:29:59.410Z,15.57
2017-10-15T05:32:28.515Z,14.43
2017-10-15T05:34:56.802Z,16.43
2017-10-15T05:37:25.142Z,13.80
2017-10-15T05:39:53.462Z,16.10
2017-10-15T05:42:21.759Z,14.93
2017-10-15T05:44:50.164Z,15.50
2017-10-15T05:47:18.491Z,14.13
2017-10-15T05:49:46.810Z,13.93
2017-10-15T05:52:15.108Z,16.00
2017-10-15T05:54:43.439Z,16.60
2017-10-15T05:57:12.552Z,19.57
2017-10-15T05:59:41.622Z,17.40
2017-10-15T06:02:09.920Z,15.87
2017-10-15T06:04:38.257Z,17.90
2017-10-15T06:07:06.542Z,17.27
2017-10-15T06:09:34.830Z,17.20
2017-10-15T06:12:03.153Z,18.30
2017-10-15T06:14:31.483Z,17.97
2017-10-15T06:16:59.784Z,18.10
2017-10-15T06:19:28.970Z,19.60
2017-10-15T06:21:57.295Z,19.73
2017-10-15T06:24:25.586Z,19.67
2017-10-15T06:26:54.683Z,19.90
2017-10-15T06:29:23.784Z,22.30
2017-10-15T06:31:52.075Z,21.83
2017-10-15T06:34:21.163Z,21.40
2017-10-15T06:36:51.003Z,23.03
2017-10-15T06:39:19.347Z,22.80
2017-10-15T06:41:47.638Z,24.67
2017-10-15T06:44:15.924Z,23.37
2017-10-15T06:46:44.353Z,22.67
2017-10-15T06:49:14.171Z,25.03
2017-10-15T06:51:42.558Z,19.20
2017-10-15T06:54:10.892Z,21.70
2017-10-15T06:56:39.184Z,24.50
2017-10-15T06:59:07.523Z,22.50
2017-10-15T07:01:35.830Z,19.67
2017-10-15T07:04:05.622Z,21.70
2017-10-15T07:06:33.962Z,19.83
2017-10-15T07:09:03.018Z,19.37
2017-10-15T07:11:31.327Z,18.63
2017-10-15T07:13:59.646Z,17.67
2017-10-15T07:16:28.730Z,18.37
2017-10-15T07:18:57.028Z,18.60
2017-10-15T07:21:26.952Z,17.10
2017-10-15T07:23:56.753Z,16.90
2017-10-15T07:26:25.034Z,19.10
2017-10-15T07:28:53.372Z,17.43
2017-10-15T07:31:22.442Z,18.27
2017-10-15T07:33:50.780Z,18.83
2017-10-15T07:36:19.836Z,18.13
2017-10-15T07:38:48.127Z,17.47
2017-10-15T07:41:16.449Z,18.10
2017-10-15T07:43:44.732Z,18.97
2017-10-15T07:46:13.054Z,19.73
2017-10-15T07:48:41.779Z,19.17
2017-10-15T07:51:10.063Z,20.87
2017-10-15T07:53:38.391Z,19.23
2017-10-15T07:56:06.710Z,20.40
2017-10-15T07:58:35.829Z,20.30
2017-10-15T08:01:04.885Z,19.70
2017-10-15T08:03:33.202Z,21.00
2017-10-15T08:06:02.259Z,21.13
2017-10-15T08:08:30.588Z,21.43
2017-10-15T08:10:58.884Z,20.50
2017-10-15T08:13:27.254Z,20.90
2017-10-15T08:15:55.590Z,21.47
2017-10-15T08:18:23.884Z,23.30
2017-10-15T08:20:52.206Z,22.97
2017-10-15T08:23:20.622Z,21.37
2017-10-15T08:25:50.451Z,22.70
2017-10-15T08:28:19.664Z,21.57
2017-10-15T08:30:48.042Z,23.57
2017-10-15T08:33:16.379Z,23.30
2017-10-15T08:35:45.436Z,24.13
2017-10-15T08:38:13.763Z,24.40
2017-10-15T08:40:42.863Z,22.50
2017-10-15T08:43:11.919Z,24.23
2017-10-15T08:45:40.210Z,23.47
2017-10-15T08:48:08.634Z,23.60
2017-10-15T08:50:36.919Z,24.67
2017-10-15T08:53:05.239Z,24.40
2017-10-15T08:55:34.294Z,24.47
2017-10-15T08:58:02.631Z,23.80
2017-10-15T09:00:31.687Z,26.47
2017-10-15T09:03:00.024Z,21.90
2017-10-15T09:05:29.083Z,21.60
2017-10-15T09:07:57.367Z,22.67
2017-10-15T09:10:25.704Z,20.80
2017-10-15T09:12:53.988Z,25.23
2017-10-15T09:15:22.362Z,21.03
2017-10-15T09:17:50.678Z,18.73
2017-10-15T09:20:20.022Z,20.37
2017-10-15T09:22:48.348Z,22.00
2017-10-15T09:25:16.640Z,19.27
2017-10-15T09:27:45.049Z,20.73
2017-10-15T09:30:13.379Z,19.63
2017-10-15T09:32:41.668Z,20.70
2017-10-15T09:35:10.000Z,23.20
2017-10-15T09:37:38.336Z,20.17
2017-10-15T09:40:07.427Z,21.10
2017-10-15T09:42:35.715Z,22.70
2017-10-15T09:45:04.093Z,21.93
2017-10-15T09:47:32.409Z,24.00
2017-10-15T09:50:01.488Z,22.93
2017-10-15T09:52:31.318Z,22.07
2017-10-15T09:54:59.612Z,23.63
2017-10-15T09:57:27.932Z,21.73
2017-10-15T09:59:56.227Z,20.53
2017-10-15T10:02:24.559Z,21.37
2017-10-15T10:04:52.848Z,19.13
2017-10-15T10:07:21.135Z,19.70
2017-10-15T10:09:49.446Z,20.17
2017-10-15T10:12:17.788Z,19.57
2017-10-15T10:14:46.117Z,20.77
2017-10-15T10:17:14.506Z,19.63
2017-10-15T10:19:44.440Z,18.80
2017-10-15T10:22:12.762Z,16.97
2017-10-15T10:24:41.856Z,15.77
2017-10-15T10:27:10.924Z,13.77
2017-10-15T10:29:39.260Z,16.73
2017-10-15T10:32:08.310Z,13.83
2017-10-15T10:34:36.626Z,14.40
2017-10-15T10:37:07.789Z,12.47
2017-10-15T10:39:36.884Z,13.17
2017-10-15T10:42:06.708Z,14.30
2017-10-15T10:44:40.322Z,13.77
2017-10-15T10:47:09.744Z,12.27
2017-10-15T10:49:40.421Z,12.30
2017-10-15T10:52:11.948Z,11.33
2017-10-15T10:54:42.314Z,9.80
2017-10-15T10:57:11.701Z,11.23
2017-10-15T10:59:40.676Z,9.80
2017-10-15T11:02:10.737Z,10.40
2017-10-15T11:04:39.251Z,12.30
2017-10-15T11:07:08.354Z,10.43
2017-10-15T11:09:36.642Z,11.70
2017-10-15T11:12:04.973Z,12.87
2017-10-15T11:14:33.296Z,11.50
2017-10-15T11:17:01.623Z,11.97
2017-10-15T11:19:30.724Z,11.87
2017-10-15T11:21:59.057Z,13.97
2017-10-15T11:24:27.391Z,11.40
2017-10-15T11:26:57.192Z,10.67
2017-10-15T11:29:25.512Z,11.37
2017-10-15T11:31:53.895Z,11.07
2017-10-15T11:34:23.699Z,10.80
2017-10-15T11:36:52.114Z,11.30
2017-10-15T11:39:20.446Z,10.47
2017-10-15T11:41:48.730Z,9.70
2017-10-15T11:44:17.792Z,11.13
2017-10-15T11:46:46.115Z,9.73
2017-10-15T11:49:15.176Z,9.20
2017-10-15T11:51:43.507Z,9.47
2017-10-15T11:54:11.790Z,8.23
2017-10-15T11:56:40.176Z,9.20
2017-10-15T11:59:08.562Z,9.43
2017-10-15T12:01:36.840Z,9.30
2017-10-15T12:04:05.238Z,9.30
2017-10-15T12:06:33.536Z,8.27
2017-10-15T12:09:01.926Z,8.27
2017-10-15T12:11:30.315Z,9.60
2017-10-15T12:14:00.143Z,7.87
2017-10-15T12:16:28.539Z,9.00
2017-10-15T12:18:58.367Z,10.50
2017-10-15T12:21:26.674Z,11.73
2017-10-15T12:23:55.755Z,8.50
2017-10-15T12:26:24.148Z,9.77
2017-10-15T12:28:52.540Z,10.30
2017-10-15T12:31:20.843Z,8.30
2017-10-15T12:33:49.240Z,10.20
2017-10-15T12:36:17.523Z,10.70
2017-10-15T12:38:46.752Z,9.60
2017-10-15T12:41:15.208Z,10.00
2017-10-15T12:43:43.548Z,9.60
2017-10-15T12:46:11.881Z,12.90
2017-10-15T12:48:40.646Z,11.40
2017-10-15T12:51:08.975Z,10.57
2017-10-15T12:53:37.362Z,9.97
2017-10-15T12:56:05.642Z,9.63
2017-10-15T12:58:33.968Z,11.50
2017-10-15T13:01:03.022Z,10.63
2017-10-15T13:03:31.306Z,10.27
2017-10-15T13:05:59.787Z,11.67
2017-10-15T13:08:28.095Z,14.60
2017-10-15T13:10:56.418Z,12.07
2017-10-15T13:13:24.807Z,12.70
2017-10-15T13:15:53.143Z,17.17
2017-10-15T13:18:21.435Z,36.77
2017-10-15T13:20:49.727Z,17.20
2017-10-15T13:23:18.074Z,24.63
2017-10-15T13:25:46.401Z,26.20
2017-10-15T13:28:14.688Z,47.73
2017-10-15T13:30:43.035Z,12.93
2017-10-15T13:33:11.422Z,37.03
2017-10-15T13:35:39.746Z,15.50
2017-10-15T13:38:08.798Z,16.97
2017-10-15T13:40:37.136Z,24.53
2017-10-15T13:43:06.187Z,11.30
2017-10-15T13:45:34.507Z,23.90
2017-10-15T13:48:02.843Z,16.60
2017-10-15T13:50:31.131Z,20.20
2017-10-15T13:52:59.482Z,11.20
2017-10-15T13:55:27.879Z,15.40
2017-10-15T13:57:57.804Z,21.83
2017-10-15T14:00:26.086Z,14.17
2017-10-15T14:02:54.384Z,25.43
2017-10-15T14:05:22.710Z,11.40
2017-10-15T14:07:51.013Z,11.77
2017-10-15T14:10:19.439Z,10.77
2017-10-15T14:12:47.738Z,9.83
2017-10-15T14:15:17.665Z,10.20
2017-10-15T14:17:45.991Z,14.50
2017-10-15T14:20:15.047Z,13.63
2017-10-15T14:22:43.446Z,10.80
2017-10-15T14:25:11.735Z,13.40
2017-10-15T14:27:40.032Z,10.47
2017-10-15T14:30:08.368Z,12.00
2017-10-15T14:32:36.651Z,10.37
2017-10-15T14:35:04.938Z,10.67
2017-10-15T14:37:33.296Z,10.80
2017-10-15T14:40:01.683Z,11.50
2017-10-15T14:42:30.064Z,12.20
2017-10-15T14:44:58.387Z,12.20
2017-10-15T14:47:27.451Z,7.80
2017-10-15T14:49:55.776Z,11.00
2017-10-15T14:52:24.835Z,20.70
2017-10-15T14:54:53.147Z,11.20
2017-10-15T14:57:21.487Z,12.90
2017-10-15T14:59:49.800Z,9.17
2017-10-15T15:02:18.224Z,8.83
2017-10-15T15:04:46.507Z,22.60
2017-10-15T15:07:14.798Z,15.07
2017-10-15T15:09:43.118Z,9.23
2017-10-15T15:12:12.175Z,17.80
2017-10-15T15:14:40.507Z,11.90
2017-10-15T15:17:10.308Z,14.43
2017-10-15T15:19:39.527Z,20.43
2017-10-15T15:22:09.332Z,11.50
2017-10-15T15:24:37.614Z,13.93
2017-10-15T15:27:05.943Z,14.53
2017-10-15T15:29:34.315Z,8.90
2017-10-15T15:32:02.627Z,12.90
2017-10-15T15:34:31.678Z,10.27
2017-10-15T15:37:00.111Z,16.80
2017-10-15T15:39:28.468Z,16.00
2017-10-15T15:41:56.730Z,14.97
2017-10-15T15:44:25.054Z,10.80
2017-10-15T15:46:53.396Z,10.97
2017-10-15T15:49:22.446Z,17.73
2017-10-15T15:51:50.734Z,12.40
2017-10-15T15:54:19.063Z,12.90
2017-10-15T15:56:47.350Z,15.70
2017-10-15T15:59:15.670Z,12.07
2017-10-15T16:01:44.002Z,11.97
2017-10-15T16:04:12.290Z,11.77
2017-10-15T16:06:40.575Z,12.30
2017-10-15T16:09:08.911Z,12.33
2017-10-15T16:11:37.966Z,14.73
2017-10-15T16:14:06.259Z,13.03
2017-10-15T16:16:34.588Z,13.50
2017-10-15T16:19:02.874Z,15.90
2017-10-15T16:21:31.250Z,13.93
2017-10-15T16:24:01.086Z,10.30
2017-10-15T16:26:29.371Z,12.60
2017-10-15T16:28:58.418Z,13.23
2017-10-15T16:31:27.498Z,14.33
2017-10-15T16:33:56.559Z,12.23
2017-10-15T16:36:24.975Z,11.17
2017-10-15T16:38:53.587Z,13.43
2017-10-15T16:41:21.906Z,14.57
2017-10-15T16:43:50.199Z,12.90
2017-10-15T16:46:18.542Z,13.13
2017-10-15T16:48:48.348Z,11.43
2017-10-15T16:51:16.638Z,13.17
2017-10-15T16:53:44.966Z,15.03
2017-10-15T16:56:13.259Z,12.73
2017-10-15T16:58:42.321Z,14.57
2017-10-15T17:01:10.631Z,15.47
2017-10-15T17:03:38.915Z,15.90
2017-10-15T17:06:07.243Z,19.37
2017-10-15T17:08:36.304Z,20.33
2017-10-15T17:11:04.636Z,21.53
2017-10-15T17:13:33.008Z,19.57
2017-10-15T17:16:01.338Z,22.03
2017-10-15T17:18:29.658Z,20.63
2017-10-15T17:20:57.987Z,21.27
2017-10-15T17:23:27.084Z,22.30
2017-10-15T17:25:55.379Z,19.70
2017-10-15T17:28:23.703Z,21.17
2017-10-15T17:30:51.999Z,23.03
2017-10-15T17:33:20.435Z,21.20
2017-10-15T17:35:48.714Z,20.97
2017-10-15T17:38:17.040Z,22.40
2017-10-15T17:40:46.100Z,19.53
2017-10-15T17:43:14.448Z,18.67
2017-10-15T17:45:43.507Z,18.20
2017-10-15T17:48:11.801Z,17.73
2017-10-15T17:50:40.127Z,16.60
2017-10-15T17:53:09.206Z,17.10
2017-10-15T17:55:37.526Z,18.17
2017-10-15T17:58:06.587Z,21.50
2017-10-15T18:00:34.924Z,17.60
2017-10-15T18:03:03.989Z,20.47
2017-10-15T18:05:32.283Z,15.73
2017-10-15T18:08:00.618Z,43.47
2017-10-15T18:10:28.938Z,40.43
2017-10-15T18:12:57.266Z,17.40
2017-10-15T18:15:27.058Z,14.70
2017-10-15T18:17:55.351Z,14.60
2017-10-15T18:20:23.683Z,14.63
2017-10-15T18:22:52.738Z,15.20
2017-10-15T18:25:21.026Z,18.03
2017-10-15T18:27:49.342Z,16.10
2017-10-15T18:30:17.683Z,15.30
2017-10-15T18:32:45.974Z,14.37
2017-10-15T18:35:14.368Z,15.63
2017-10-15T18:37:42.687Z,11.70
2017-10-15T18:40:11.015Z,13.37
2017-10-15T18:42:39.490Z,11.20
2017-10-15T18:45:07.783Z,13.40
2017-10-15T18:47:37.603Z,18.70
2017-10-15T18:50:06.004Z,22.93
2017-10-15T18:52:34.300Z,21.10
2017-10-15T18:55:04.228Z,21.40
2017-10-15T18:57:32.575Z,22.47
2017-10-15T19:00:00.868Z,19.73
2017-10-15T19:02:29.155Z,19.30
2017-10-15T19:04:57.572Z,17.90
2017-10-15T19:07:25.963Z,21.83
2017-10-15T19:09:54.246Z,18.10
2017-10-15T19:12:22.576Z,20.50
2017-10-15T19:14:51.635Z,20.00
2017-10-15T19:17:19.953Z,19.03
2017-10-15T19:19:48.233Z,16.10
2017-10-15T19:22:18.079Z,17.63
2017-10-15T19:24:47.130Z,17.33
2017-10-15T19:27:15.422Z,17.83
2017-10-15T19:29:44.634Z,16.33
2017-10-15T19:32:12.929Z,16.63
2017-10-15T19:34:41.252Z,15.00
2017-10-15T19:37:09.538Z,14.03
2017-10-15T19:39:37.875Z,16.40
2017-10-15T19:42:06.172Z,15.90
2017-10-15T19:44:34.467Z,16.73
2017-10-15T19:47:02.800Z,16.10
2017-10-15T19:49:31.094Z,18.00
2017-10-15T19:51:59.403Z,15.73
2017-10-15T19:54:27.738Z,17.53
2017-10-15T19:56:56.135Z,17.10
2017-10-15T19:59:24.434Z,16.37
2017-10-15T20:01:52.816Z,16.33
2017-10-15T20:04:21.332Z,17.90
2017-10-15T20:06:49.626Z,18.30
2017-10-15T20:09:17.911Z,20.03
2017-10-15T20:11:46.252Z,18.47
2017-10-15T20:14:14.539Z,16.10
2017-10-15T20:16:42.871Z,16.60
2017-10-15T20:19:11.162Z,16.53
2017-10-15T20:21:40.987Z,16.50
2017-10-15T20:24:09.315Z,17.00
2017-10-15T20:26:37.602Z,15.90
2017-10-15T20:29:05.900Z,17.63
2017-10-15T20:31:34.239Z,13.83
2017-10-15T20:34:02.571Z,14.37
2017-10-15T20:36:30.854Z,13.60
2017-10-15T20:38:59.175Z,12.83
2017-10-15T20:41:27.462Z,13.90
2017-10-15T20:43:55.778Z,13.30
2017-10-15T20:46:24.116Z,14.00
2017-10-15T20:48:52.418Z,15.60
2017-10-15T20:51:20.703Z,15.87
2017-10-15T20:53:49.031Z,16.30
2017-10-15T20:56:17.323Z,16.30
2017-10-15T20:58:45.620Z,15.70
2017-10-15T21:01:14.020Z,16.37
2017-10-15T21:03:43.838Z,15.90
2017-10-15T21:06:12.164Z,14.63
2017-10-15T21:08:41.246Z,13.80
2017-10-15T21:11:09.539Z,15.50
2017-10-15T21:13:37.862Z,15.23
2017-10-15T21:16:06.155Z,15.87
2017-10-15T21:18:34.486Z,16.70
2017-10-15T21:21:02.771Z,16.27
2017-10-15T21:23:31.116Z,15.70
2017-10-15T21:25:59.402Z,16.20
2017-10-15T21:28:27.756Z,14.90
2017-10-15T21:30:56.094Z,17.17
2017-10-15T21:33:24.426Z,13.90
2017-10-15T21:35:52.771Z,15.80
2017-10-15T21:38:21.068Z,14.10
2017-10-15T21:40:49.396Z,13.03
2017-10-15T21:43:17.729Z,13.73
2017-10-15T21:45:46.809Z,11.70
2017-10-15T21:48:15.108Z,11.53
2017-10-15T21:50:44.304Z,11.03
2017-10-15T21:53:14.772Z,11.07
2017-10-15T21:55:43.946Z,10.50
2017-10-15T21:58:13.778Z,11.13
2017-10-15T22:00:43.579Z,11.27
2017-10-15T22:03:11.989Z,13.37
2017-10-15T22:05:40.382Z,13.53
2017-10-15T22:08:08.704Z,13.47
2017-10-15T22:10:37.800Z,12.00
2017-10-15T22:13:06.891Z,11.80
2017-10-15T22:15:35.283Z,11.27
2017-10-15T22:18:03.627Z,11.80
2017-10-15T22:20:37.639Z,13.07
2017-10-15T22:23:05.962Z,11.07
2017-10-15T22:25:34.242Z,11.07
2017-10-15T22:28:02.568Z,10.80
2017-10-15T22:30:32.363Z,11.60
2017-10-15T22:33:00.682Z,12.33
2017-10-15T22:35:29.018Z,10.70
2017-10-15T22:37:57.346Z,12.90
2017-10-15T22:40:25.688Z,12.90
2017-10-15T22:42:53.988Z,11.77
2017-10-15T22:45:22.308Z,12.20
2017-10-15T22:47:50.608Z,11.10
2017-10-15T22:50:19.002Z,11.87
2017-10-15T22:52:47.338Z,10.93
2017-10-15T22:55:15.631Z,9.80
2017-10-15T22:57:43.965Z,11.80
2017-10-15T23:00:12.303Z,12.23
2017-10-15T23:02:40.598Z,11.17
2017-10-15T23:05:08.904Z,10.20
2017-10-15T23:07:37.215Z,11.90
2017-10-15T23:10:05.516Z,10.80
2017-10-15T23:12:33.842Z,9.73
2017-10-15T23:15:02.936Z,10.00
2017-10-15T23:17:31.258Z,8.70
2017-10-15T23:19:59.594Z,8.80
2017-10-15T23:22:27.883Z,8.97
2017-10-15T23:24:56.198Z,8.90
2017-10-15T23:27:25.379Z,8.40
2017-10-15T23:29:53.714Z,11.30
2017-10-15T23:32:22.060Z,9.70
2017-10-15T23:34:50.363Z,10.53
2017-10-15T23:37:18.674Z,8.83
2017-10-15T23:39:47.732Z,9.40
2017-10-15T23:42:16.068Z,9.30
2017-10-15T23:44:45.124Z,9.73
2017-10-15T23:47:13.402Z,9.20
2017-10-15T23:49:41.821Z,8.03
2017-10-15T23:52:10.232Z,8.47
2017-10-15T23:54:38.507Z,8.70
2017-10-15T23:57:06.819Z,9.03
2017-10-15T23:59:35.867Z,9.17
